createdAt,value
2022-08-08T00:01:52.515Z,13.37
2022-08-08T00:04:56.005Z,12.93
2022-08-08T00:07:46.613Z,13.30
2022-08-08T00:10:28.029Z,13.77
2022-08-08T00:13:01.710Z,14.20
2022-08-08T00:15:57.540Z,14.33
2022-08-08T00:18:51.333Z,14.20
2022-08-08T00:21:26.645Z,14.60
2022-08-08T00:24:06.960Z,16.23
2022-08-08T00:26:41.692Z,16.33
2022-08-08T00:29:44.927Z,15.27
2022-08-08T00:32:36.810Z,14.97
2022-08-08T00:35:25.791Z,15.37
2022-08-08T00:38:03.160Z,16.70
2022-08-08T00:41:12.460Z,17.07
2022-08-08T00:43:23.670Z,18.33
2022-08-08T00:46:04.127Z,17.73
2022-08-08T00:49:32.308Z,17.87
2022-08-08T00:52:20.084Z,16.13
2022-08-08T00:55:03.456Z,16.33
2022-08-08T00:57:58.075Z,17.43
2022-08-08T01:00:32.152Z,17.60
2022-08-08T01:03:59.002Z,18.27
2022-08-08T01:06:27.096Z,16.33
2022-08-08T01:09:35.767Z,17.40
2022-08-08T01:12:13.631Z,17.73
2022-08-08T01:15:17.196Z,17.37
2022-08-08T01:18:50.580Z,18.83
2022-08-08T01:22:11.987Z,17.47
2022-08-08T01:24:50.681Z,17.87
2022-08-08T01:27:48.082Z,18.17
2022-08-08T01:30:53.572Z,16.83
2022-08-08T01:34:00.178Z,17.67
2022-08-08T01:36:52.732Z,19.83
2022-08-08T01:39:34.917Z,18.87
2022-08-08T01:42:46.161Z,19.50
2022-08-08T01:45:33.408Z,20.63
2022-08-08T01:48:36.778Z,19.90
2022-08-08T01:52:43.851Z,19.70
2022-08-08T01:55:26.698Z,20.33
2022-08-08T01:58:13.505Z,21.63
2022-08-08T02:01:17.190Z,20.10
2022-08-08T02:03:58.429Z,21.00
2022-08-08T02:06:36.396Z,19.53
2022-08-08T02:10:02.106Z,20.73
2022-08-08T02:12:48.452Z,20.93
2022-08-08T02:15:38.595Z,21.57
2022-08-08T02:18:27.362Z,20.43
2022-08-08T02:21:29.630Z,20.83
2022-08-08T02:24:09.771Z,20.30
2022-08-08T02:26:50.353Z,22.13
2022-08-08T02:29:46.934Z,21.83
2022-08-08T02:32:41.861Z,21.00
2022-08-08T02:35:17.480Z,22.10
2022-08-08T02:38:25.413Z,21.20
2022-08-08T02:41:58.577Z,22.00
2022-08-08T02:44:57.283Z,21.47
2022-08-08T02:47:42.466Z,20.80
2022-08-08T02:50:56.275Z,20.77
2022-08-08T02:53:58.026Z,21.47
2022-08-08T02:56:46.165Z,21.67
2022-08-08T02:59:57.270Z,21.63
2022-08-08T03:02:50.133Z,20.20
2022-08-08T03:05:32.895Z,21.23
2022-08-08T03:08:40.963Z,22.03
2022-08-08T03:11:47.758Z,22.53
2022-08-08T03:15:57.287Z,22.53
2022-08-08T03:17:40.730Z,22.13
2022-08-08T03:20:11.663Z,22.00
2022-08-08T03:22:56.731Z,22.07
2022-08-08T03:25:34.135Z,23.43
2022-08-08T03:28:09.704Z,22.27
2022-08-08T03:30:38.658Z,22.63
2022-08-08T03:33:54.855Z,23.27
2022-08-08T03:36:16.020Z,22.47
2022-08-08T03:38:57.069Z,22.50
2022-08-08T03:42:13.151Z,22.87
2022-08-08T03:44:25.550Z,22.87
2022-08-08T03:46:54.797Z,24.33
2022-08-08T03:49:58.452Z,23.80
2022-08-08T03:52:15.348Z,23.77
2022-08-08T03:55:02.252Z,22.80
2022-08-08T03:58:31.085Z,21.13
2022-08-08T04:00:26.048Z,21.43
2022-08-08T04:03:01.852Z,20.20
2022-08-08T04:05:32.875Z,19.63
2022-08-08T04:08:08.469Z,20.27
2022-08-08T04:10:37.469Z,19.43
2022-08-08T04:13:17.422Z,17.93
2022-08-08T04:15:55.210Z,19.77
2022-08-08T04:18:44.613Z,18.17
2022-08-08T04:21:13.065Z,18.20
2022-08-08T04:24:18.764Z,17.67
2022-08-08T04:26:35.559Z,20.23
2022-08-08T04:29:12.956Z,21.73
2022-08-08T04:31:58.426Z,20.50
2022-08-08T04:34:31.804Z,19.60
2022-08-08T04:37:01.045Z,19.67
2022-08-08T04:40:05.557Z,19.37
2022-08-08T04:42:22.085Z,21.00
2022-08-08T04:44:52.138Z,20.13
2022-08-08T04:47:20.329Z,21.13
2022-08-08T04:50:00.822Z,22.43
2022-08-08T04:52:33.980Z,22.13
2022-08-08T04:55:04.482Z,20.90
2022-08-08T04:57:34.231Z,20.03
2022-08-08T05:00:05.148Z,21.23
2022-08-08T05:02:33.493Z,22.77
2022-08-08T05:05:01.450Z,22.60
2022-08-08T05:07:42.085Z,22.97
2022-08-08T05:10:12.739Z,21.70
2022-08-08T05:12:43.236Z,21.43
2022-08-08T05:16:48.209Z,23.07
2022-08-08T05:18:15.614Z,20.43
2022-08-08T05:20:49.993Z,21.00
2022-08-08T05:23:19.354Z,20.33
2022-08-08T05:25:49.629Z,19.37
2022-08-08T05:28:55.753Z,19.90
2022-08-08T05:31:08.578Z,16.90
2022-08-08T05:33:53.681Z,17.23
2022-08-08T05:36:28.167Z,17.83
2022-08-08T05:38:59.112Z,16.47
2022-08-08T05:41:28.040Z,17.20
2022-08-08T05:44:05.787Z,16.43
2022-08-08T05:46:38.022Z,16.20
2022-08-08T05:49:11.457Z,16.53
2022-08-08T05:51:48.731Z,15.50
2022-08-08T05:54:27.147Z,14.63
2022-08-08T05:57:15.864Z,14.37
2022-08-08T06:00:00.867Z,15.47
2022-08-08T06:03:09.264Z,15.17
2022-08-08T06:05:51.682Z,15.23
2022-08-08T06:08:35.326Z,14.53
2022-08-08T06:11:13.376Z,14.13
2022-08-08T06:13:47.433Z,14.23
2022-08-08T06:16:25.003Z,13.87
2022-08-08T06:19:16.223Z,13.00
2022-08-08T06:21:56.820Z,12.83
2022-08-08T06:24:36.367Z,12.53
2022-08-08T06:27:09.335Z,12.20
2022-08-08T06:30:00.943Z,12.00
2022-08-08T06:32:52.650Z,11.73
2022-08-08T06:36:07.394Z,12.23
2022-08-08T06:38:21.299Z,11.40
2022-08-08T06:41:04.144Z,12.17
2022-08-08T06:43:35.937Z,12.43
2022-08-08T06:46:09.177Z,11.93
2022-08-08T06:48:42.482Z,11.77
2022-08-08T06:51:13.106Z,12.77
2022-08-08T06:53:51.266Z,12.03
2022-08-08T06:56:31.009Z,12.07
2022-08-08T06:58:58.954Z,12.20
2022-08-08T07:02:27.440Z,11.30
2022-08-08T07:04:35.550Z,11.60
2022-08-08T07:07:12.442Z,10.47
2022-08-08T07:10:08.308Z,11.67
2022-08-08T07:12:55.280Z,12.63
2022-08-08T07:16:04.318Z,12.13
2022-08-08T07:19:01.184Z,12.40
2022-08-08T07:22:05.032Z,12.60
2022-08-08T07:24:58.678Z,12.27
2022-08-08T07:27:47.251Z,12.07
2022-08-08T07:30:25.679Z,11.03
2022-08-08T07:32:59.466Z,11.53
2022-08-08T07:35:30.723Z,11.63
2022-08-08T07:38:10.576Z,11.27
2022-08-08T07:40:59.247Z,10.90
2022-08-08T07:43:40.309Z,10.93
2022-08-08T07:46:23.840Z,11.17
2022-08-08T07:48:59.730Z,10.67
2022-08-08T07:51:44.859Z,11.43
2022-08-08T07:54:36.027Z,10.87
2022-08-08T07:57:25.617Z,11.60
2022-08-08T08:00:24.312Z,11.90
2022-08-08T08:03:20.347Z,12.10
2022-08-08T08:05:54.566Z,11.77
2022-08-08T08:08:39.738Z,12.43
2022-08-08T08:11:23.490Z,11.70
2022-08-08T08:14:07.996Z,11.23
2022-08-08T08:16:48.497Z,11.40
2022-08-08T08:19:20.035Z,11.53
2022-08-08T08:21:57.223Z,11.10
2022-08-08T08:24:39.185Z,12.00
2022-08-08T08:27:11.581Z,11.43
2022-08-08T08:29:42.712Z,11.40
2022-08-08T08:32:12.417Z,10.47
2022-08-08T08:34:52.547Z,9.47
2022-08-08T08:37:21.290Z,11.23
2022-08-08T08:40:00.893Z,10.80
2022-08-08T08:42:36.427Z,11.27
2022-08-08T08:45:16.452Z,11.60
2022-08-08T08:48:00.909Z,11.20
2022-08-08T08:50:42.580Z,10.60
2022-08-08T08:53:56.658Z,10.77
2022-08-08T08:56:30.427Z,11.97
2022-08-08T08:59:30.635Z,10.90
2022-08-08T09:02:24.741Z,10.53
2022-08-08T09:05:06.073Z,11.87
2022-08-08T09:10:41.419Z,11.17
2022-08-08T09:13:27.918Z,10.87
2022-08-08T09:16:03.482Z,10.93
2022-08-08T09:18:36.235Z,10.33
2022-08-08T09:21:58.691Z,9.97
2022-08-08T09:24:02.459Z,9.93
2022-08-08T09:26:49.725Z,11.77
2022-08-08T09:29:31.471Z,10.30
2022-08-08T09:32:31.134Z,6.27
2022-08-08T09:35:08.302Z,8.30
2022-08-08T09:38:02.352Z,8.43
2022-08-08T09:40:53.916Z,7.03
2022-08-08T09:44:06.140Z,7.73
2022-08-08T09:46:57.438Z,9.00
2022-08-08T09:49:51.590Z,7.67
2022-08-08T09:52:55.557Z,7.43
2022-08-08T09:56:03.547Z,5.93
2022-08-08T09:58:31.105Z,5.80
2022-08-08T10:02:00.199Z,5.37
2022-08-08T10:04:41.980Z,6.67
2022-08-08T10:07:19.108Z,6.97
2022-08-08T10:10:00.791Z,5.97
2022-08-08T10:13:14.588Z,6.50
2022-08-08T10:16:03.903Z,6.27
2022-08-08T10:18:44.492Z,5.57
2022-08-08T10:21:33.037Z,6.40
2022-08-08T10:24:29.231Z,5.80
2022-08-08T10:27:38.118Z,6.60
2022-08-08T10:30:23.553Z,7.50
2022-08-08T10:33:12.305Z,6.40
2022-08-08T10:36:09.452Z,7.27
2022-08-08T10:38:45.612Z,6.47
2022-08-08T10:41:35.716Z,6.43
2022-08-08T10:44:38.967Z,6.13
2022-08-08T10:47:16.308Z,6.60
2022-08-08T10:50:01.434Z,6.60
2022-08-08T10:52:44.455Z,6.23
2022-08-08T10:55:41.157Z,5.33
2022-08-08T10:58:12.432Z,5.13
2022-08-08T11:00:53.365Z,5.40
2022-08-08T11:04:00.322Z,5.47
2022-08-08T11:06:41.857Z,5.33
2022-08-08T11:09:21.270Z,6.23
2022-08-08T11:12:04.871Z,6.90
2022-08-08T11:14:52.012Z,6.17
2022-08-08T11:18:00.394Z,6.07
2022-08-08T11:20:43.492Z,5.57
2022-08-08T11:23:21.441Z,6.10
2022-08-08T11:25:55.323Z,6.40
2022-08-08T11:28:29.055Z,5.20
2022-08-08T11:31:00.615Z,5.30
2022-08-08T11:33:51.265Z,5.60
2022-08-08T11:36:16.656Z,5.57
2022-08-08T11:38:54.829Z,4.80
2022-08-08T11:41:45.256Z,4.70
2022-08-08T11:44:15.778Z,4.40
2022-08-08T11:46:43.732Z,4.33
2022-08-08T11:49:14.643Z,4.43
2022-08-08T11:51:50.671Z,3.97
2022-08-08T11:54:33.901Z,4.60
2022-08-08T11:57:23.946Z,4.70
2022-08-08T12:00:09.730Z,4.50
2022-08-08T12:02:55.063Z,4.40
2022-08-08T12:05:36.948Z,4.53
2022-08-08T12:08:05.030Z,5.20
2022-08-08T12:10:32.341Z,4.53
2022-08-08T12:13:07.297Z,4.93
2022-08-08T12:15:42.809Z,4.40
2022-08-08T12:18:27.346Z,4.87
2022-08-08T12:20:59.590Z,4.80
2022-08-08T12:23:42.736Z,5.13
2022-08-08T12:26:28.340Z,4.57
2022-08-08T12:29:21.181Z,6.13
2022-08-08T12:32:04.669Z,6.00
2022-08-08T12:35:13.117Z,4.67
2022-08-08T12:38:02.794Z,5.90
2022-08-08T12:40:44.403Z,5.40
2022-08-08T12:43:46.302Z,5.37
2022-08-08T12:46:26.014Z,5.50
2022-08-08T12:49:25.450Z,4.80
2022-08-08T12:51:58.865Z,4.83
2022-08-08T12:54:45.844Z,4.30
2022-08-08T12:57:24.496Z,5.60
2022-08-08T13:00:05.117Z,4.53
2022-08-08T13:02:37.016Z,5.20
2022-08-08T13:05:26.479Z,4.37
2022-08-08T13:08:18.811Z,4.10
2022-08-08T13:10:58.548Z,4.43
2022-08-08T13:13:35.366Z,4.20
2022-08-08T13:16:19.711Z,4.80
2022-08-08T13:18:57.059Z,4.33
2022-08-08T13:21:55.516Z,4.43
2022-08-08T13:24:18.593Z,4.27
2022-08-08T13:27:14.734Z,4.10
2022-08-08T13:29:53.733Z,4.00
2022-08-08T13:32:23.855Z,3.87
2022-08-08T13:34:56.760Z,4.20
2022-08-08T13:37:51.687Z,4.63
2022-08-08T13:40:17.764Z,4.17
2022-08-08T13:42:54.906Z,4.43
2022-08-08T13:45:24.003Z,4.07
2022-08-08T13:48:03.996Z,3.73
2022-08-08T13:50:49.050Z,4.10
2022-08-08T13:53:36.407Z,4.40
2022-08-08T13:56:11.271Z,4.00
2022-08-08T13:58:56.043Z,4.70
2022-08-08T14:01:52.486Z,4.50
2022-08-08T14:04:22.174Z,4.30
2022-08-08T14:06:59.266Z,3.73
2022-08-08T14:10:05.882Z,3.77
2022-08-08T14:12:25.073Z,4.73
2022-08-08T14:14:52.491Z,4.20
2022-08-08T14:17:22.650Z,4.47
2022-08-08T14:20:15.817Z,3.87
2022-08-08T14:23:10.258Z,4.40
2022-08-08T14:25:54.002Z,3.83
2022-08-08T14:28:23.549Z,3.70
2022-08-08T14:31:09.377Z,3.90
2022-08-08T14:33:37.366Z,4.10
2022-08-08T14:36:09.377Z,4.00
2022-08-08T14:38:52.929Z,4.00
2022-08-08T14:41:44.970Z,4.67
2022-08-08T14:44:21.230Z,4.20
2022-08-08T14:47:01.033Z,4.30
2022-08-08T14:49:51.808Z,4.33
2022-08-08T14:52:22.096Z,3.87
2022-08-08T14:54:50.266Z,3.90
2022-08-08T14:57:17.450Z,3.90
2022-08-08T14:59:51.380Z,4.10
2022-08-08T15:02:25.714Z,4.37
2022-08-08T15:05:08.124Z,4.27
2022-08-08T15:07:40.248Z,4.30
2022-08-08T15:10:10.036Z,4.30
2022-08-08T15:12:38.239Z,4.10
2022-08-08T15:15:09.365Z,4.20
2022-08-08T15:17:42.460Z,3.90
2022-08-08T15:20:14.366Z,3.77
2022-08-08T15:22:45.507Z,3.90
2022-08-08T15:25:17.668Z,4.13
2022-08-08T15:28:04.978Z,4.20
2022-08-08T15:30:44.197Z,3.93
2022-08-08T15:33:14.393Z,4.07
2022-08-08T15:36:00.316Z,3.57
2022-08-08T15:38:27.709Z,3.97
2022-08-08T15:40:55.032Z,4.63
2022-08-08T15:43:35.074Z,4.20
2022-08-08T15:46:04.328Z,4.60
2022-08-08T15:48:31.696Z,4.13
2022-08-08T15:51:03.023Z,3.93
2022-08-08T15:53:49.299Z,3.93
2022-08-08T15:56:19.662Z,4.43
2022-08-08T15:58:49.071Z,3.93
2022-08-08T16:01:18.051Z,4.20
2022-08-08T16:03:46.097Z,4.10
2022-08-08T16:06:28.921Z,4.30
2022-08-08T16:13:01.115Z,4.43
2022-08-08T16:13:21.465Z,3.67
2022-08-08T16:14:34.804Z,4.20
2022-08-08T16:17:02.646Z,4.33
2022-08-08T16:19:59.917Z,4.23
2022-08-08T16:22:29.890Z,4.53
2022-08-08T16:24:58.904Z,4.57
2022-08-08T16:27:33.662Z,4.03
2022-08-08T16:30:13.220Z,4.20
2022-08-08T16:32:42.115Z,3.70
2022-08-08T16:35:09.758Z,4.13
2022-08-08T16:37:42.336Z,4.00
2022-08-08T16:40:19.931Z,4.00
2022-08-08T16:42:51.567Z,4.10
2022-08-08T16:46:36.713Z,3.67
2022-08-08T16:48:06.719Z,4.17
2022-08-08T16:50:33.840Z,3.93
2022-08-08T16:55:01.420Z,4.20
2022-08-08T16:55:54.030Z,3.67
2022-08-08T16:58:26.974Z,4.23
2022-08-08T17:01:00.133Z,4.73
2022-08-08T17:03:59.883Z,4.23
2022-08-08T17:06:36.823Z,4.93
2022-08-08T17:09:06.100Z,4.00
2022-08-08T17:11:48.099Z,4.30
2022-08-08T17:14:27.147Z,4.47
2022-08-08T17:16:58.626Z,3.90
2022-08-08T17:19:29.627Z,4.03
2022-08-08T17:22:00.903Z,3.70
2022-08-08T17:24:30.216Z,4.20
2022-08-08T17:26:59.138Z,4.47
2022-08-08T17:29:33.902Z,3.80
2022-08-08T17:32:04.492Z,4.10
2022-08-08T17:34:59.699Z,3.63
2022-08-08T17:37:27.638Z,4.40
2022-08-08T17:40:10.730Z,4.20
2022-08-08T17:42:40.193Z,4.60
2022-08-08T17:45:14.244Z,4.10
2022-08-08T17:47:51.112Z,4.50
2022-08-08T17:50:18.381Z,4.50
2022-08-08T17:52:47.836Z,4.23
2022-08-08T17:56:06.583Z,4.13
2022-08-08T17:58:03.454Z,4.30
2022-08-08T18:00:31.913Z,4.30
2022-08-08T18:03:09.219Z,4.27
2022-08-08T18:05:48.670Z,4.33
2022-08-08T18:08:25.368Z,4.20
2022-08-08T18:11:17.237Z,4.13
2022-08-08T18:13:48.259Z,4.23
2022-08-08T18:16:20.396Z,4.80
2022-08-08T18:18:56.496Z,4.67
2022-08-08T18:21:58.778Z,4.83
2022-08-08T18:24:24.650Z,4.33
2022-08-08T18:26:57.051Z,4.27
2022-08-08T18:29:33.136Z,3.83
2022-08-08T18:32:06.976Z,4.87
2022-08-08T18:34:37.814Z,4.40
2022-08-08T18:37:09.432Z,4.70
2022-08-08T18:39:42.470Z,4.57
2022-08-08T18:42:17.884Z,5.00
2022-08-08T18:44:55.194Z,4.70
2022-08-08T18:47:28.026Z,4.60
2022-08-08T18:50:03.123Z,4.67
2022-08-08T18:52:34.980Z,4.60
2022-08-08T18:55:10.791Z,4.23
2022-08-08T18:57:45.179Z,4.63
2022-08-08T19:00:21.032Z,5.47
2022-08-08T19:03:05.899Z,5.40
2022-08-08T19:05:44.189Z,5.10
2022-08-08T19:08:24.821Z,5.27
2022-08-08T19:11:01.634Z,5.40
2022-08-08T19:13:53.730Z,4.97
2022-08-08T19:16:20.680Z,4.93
2022-08-08T19:19:01.897Z,5.90
2022-08-08T19:21:49.589Z,5.50
2022-08-08T19:24:41.923Z,5.73
2022-08-08T19:27:07.710Z,5.27
2022-08-08T19:29:40.827Z,5.37
2022-08-08T19:32:13.011Z,5.40
2022-08-08T19:34:51.353Z,5.20
2022-08-08T19:37:19.152Z,5.33
2022-08-08T19:40:15.946Z,5.83
2022-08-08T19:42:45.063Z,5.50
2022-08-08T19:45:58.184Z,5.17
2022-08-08T19:48:03.869Z,6.10
2022-08-08T19:50:33.311Z,6.50
2022-08-08T19:53:00.418Z,5.67
2022-08-08T19:55:28.189Z,5.17
2022-08-08T19:58:01.748Z,4.87
2022-08-08T20:00:34.545Z,5.93
2022-08-08T20:03:14.897Z,5.70
2022-08-08T20:06:15.521Z,6.00
2022-08-08T20:08:44.656Z,5.77
2022-08-08T20:11:15.548Z,6.17
2022-08-08T20:14:31.492Z,6.30
2022-08-08T20:16:30.698Z,5.87
2022-08-08T20:18:59.292Z,6.13
2022-08-08T20:21:32.085Z,5.37
2022-08-08T20:24:07.610Z,5.57
2022-08-08T20:26:38.174Z,6.30
2022-08-08T20:29:06.905Z,5.80
2022-08-08T20:32:08.066Z,6.23
2022-08-08T20:34:28.765Z,5.87
2022-08-08T20:37:04.526Z,6.70
2022-08-08T20:39:39.102Z,6.43
2022-08-08T20:42:12.736Z,6.07
2022-08-08T20:44:39.948Z,5.83
2022-08-08T20:47:22.693Z,6.53
2022-08-08T20:49:54.598Z,6.07
2022-08-08T20:52:30.083Z,6.33
2022-08-08T20:54:57.948Z,6.43
2022-08-08T20:57:27.059Z,6.47
2022-08-08T20:59:56.613Z,6.63
2022-08-08T21:02:26.624Z,6.50
2022-08-08T21:05:00.769Z,6.63
2022-08-08T21:07:31.262Z,6.60
2022-08-08T21:10:17.938Z,6.43
2022-08-08T21:12:53.000Z,6.77
2022-08-08T21:16:04.837Z,7.07
2022-08-08T21:18:12.185Z,7.57
2022-08-08T21:20:42.287Z,6.43
2022-08-08T21:23:13.137Z,6.83
2022-08-08T21:25:48.934Z,6.27
2022-08-08T21:28:19.514Z,7.40
2022-08-08T21:31:22.049Z,5.93
2022-08-08T21:33:55.882Z,6.93
2022-08-08T21:36:29.279Z,6.40
2022-08-08T21:38:57.652Z,6.60
2022-08-08T21:41:38.078Z,6.23
2022-08-08T21:44:10.103Z,6.43
2022-08-08T21:48:08.060Z,5.63
2022-08-08T21:49:25.123Z,6.43
2022-08-08T21:54:18.201Z,6.03
2022-08-08T21:55:01.494Z,5.73
2022-08-08T21:57:41.917Z,6.63
2022-08-08T22:00:14.258Z,6.70
2022-08-08T22:02:43.046Z,6.80
2022-08-08T22:05:14.868Z,6.10
2022-08-08T22:07:47.440Z,6.30
2022-08-08T22:10:28.797Z,6.30
2022-08-08T22:13:17.461Z,6.17
2022-08-08T22:15:58.905Z,6.53
2022-08-08T22:18:33.095Z,6.50
2022-08-08T22:21:13.900Z,5.87
2022-08-08T22:23:50.817Z,6.37
2022-08-08T22:26:28.806Z,6.33
2022-08-08T22:29:13.855Z,6.37
2022-08-08T22:31:58.142Z,6.33
2022-08-08T22:34:32.730Z,5.93
2022-08-08T22:37:00.395Z,6.40
2022-08-08T22:39:46.314Z,6.77
2022-08-08T22:42:27.134Z,6.27
2022-08-08T22:44:55.545Z,6.53
2022-08-08T22:47:23.561Z,6.50
2022-08-08T22:50:02.117Z,6.50
2022-08-08T22:52:33.327Z,6.73
2022-08-08T22:55:04.875Z,6.70
2022-08-08T22:57:44.117Z,6.97
2022-08-08T23:00:17.102Z,6.50
2022-08-08T23:02:50.342Z,7.77
2022-08-08T23:05:21.309Z,6.87
2022-08-08T23:07:51.887Z,7.63
2022-08-08T23:10:25.474Z,7.10
2022-08-08T23:12:59.075Z,7.07
2022-08-08T23:16:40.637Z,6.40
2022-08-08T23:18:15.603Z,7.17
2022-08-08T23:20:54.532Z,6.70
2022-08-08T23:23:22.932Z,7.00
2022-08-08T23:25:50.245Z,6.33
2022-08-08T23:28:19.126Z,6.20
2022-08-08T23:30:47.790Z,6.67
2022-08-08T23:33:21.195Z,6.43
2022-08-08T23:36:07.789Z,6.40
2022-08-08T23:38:44.388Z,6.40
2022-08-08T23:41:25.135Z,6.50
2022-08-08T23:43:56.492Z,6.60
2022-08-08T23:49:04.025Z,6.57
2022-08-08T23:49:15.155Z,7.60
2022-08-08T23:52:05.300Z,6.13
2022-08-08T23:54:42.970Z,6.57
2022-08-08T23:57:26.319Z,5.93
